Time;durP1;ratioP1;P1;durP2;ratioP2;P2;SDS_P1;SDS_P2;PMS_P1;PMS_P2;Temp;Humidity;BMP_temperature;BMP_pressure;BME280_temperature;BME280_humidity;BME280_pressure;Samples;Min_cycle;Max_cycle;Signal;HPM_P1;HPM_P2
2022/01/03 00:01:44;;;;;;;;;;;;;;;;;;5028476;28;19913;-61
2022/01/03 00:04:10;;;;;;;;;;;;;;;;;;5027938;28;19913;-61
2022/01/03 00:06:35;;;;;;;;;;;;;;;;;;5027974;28;19955;-61
2022/01/03 00:09:02;;;;;;;;;;;;;;;;;;5027676;28;19917;-62
2022/01/03 00:11:27;;;;;;;;;;;;;;;;;;5027043;28;20347;-62
2022/01/03 00:13:55;;;;;;;;;;;;;;;;;;5029075;28;19916;-62
2022/01/03 00:16:23;;;;;;;;;;;;;;;;;;5030108;28;19954;-61
2022/01/03 00:18:50;;;;;;;;;;;;;;;;;;5030421;28;19921;-62
2022/01/03 00:21:17;;;;;;;;;;;;;;;;;;5029566;28;19999;-62
2022/01/03 00:23:52;;;;;;;;;;;;;;;;;;5029930;28;20430;-61
2022/01/03 00:26:24;;;;;;;;;;;;;;;;;;5033672;28;19963;-62
2022/01/03 00:28:57;;;;;;;;;;;;;;;;;;5033853;28;19920;-61
2022/01/03 00:31:24;;;;;;;;;;;;;;;;;;5032290;28;19925;-61
2022/01/03 00:33:51;;;;;;;;;;;;;;;;;;5033687;28;19913;-62
2022/01/03 00:36:18;;;;;;;;;;;;;;;;;;5036354;28;19913;-60
2022/01/03 00:38:43;;;;;;;;;;;;;;;;;;5032800;28;19923;-66
2022/01/03 00:41:09;;;;;;;;;;;;;;;;;;5031989;28;19908;-62
2022/01/03 00:43:34;;;;;;;;;;;;;;;;;;5031562;28;19960;-62
2022/01/03 00:45:59;;;;;;;;;;;;;;;;;;5032639;28;19920;-62
2022/01/03 00:48:25;;;;;;;;;;;;;;;;;;5032815;28;19912;-62
2022/01/03 00:50:50;;;;;;;;;;;;;;;;;;5031774;28;19924;-63
2022/01/03 00:53:16;;;;;;;;;;;;;;;;;;5032578;28;19997;-62
2022/01/03 00:56:02;;;;;;;;;;;;;;;;;;5032413;28;19948;-62
2022/01/03 00:58:30;;;;;;;;;;;;;;;;;;5033232;28;19917;-62
2022/01/03 01:00:56;;;;;;;;;;;;;;;;;;5032167;28;19967;-63
2022/01/03 01:03:32;;;;;;;;;;;;;;;;;;5031034;28;19975;-63
2022/01/03 01:05:59;;;;;;;;;;;;;;;;;;5031846;28;20256;-62
2022/01/03 01:08:26;;;;;;;;;;;;;;;;;;5032661;28;19959;-62
2022/01/03 01:10:53;;;;;;;;;;;;;;;;;;5032765;28;19925;-62
2022/01/03 01:13:19;;;;;;;;;;;;;;;;;;5031790;28;19916;-62
2022/01/03 01:15:44;;;;;;;;;;;;;;;;;;5032047;28;19972;-63
2022/01/03 01:18:10;;;;;;;;;;;;;;;;;;5031609;28;20536;-62
2022/01/03 01:20:36;;;;;;;;;;;;;;;;;;5036324;28;19912;-62
2022/01/03 01:23:02;;;;;;;;;;;;;;;;;;5033469;28;20282;-62
2022/01/03 01:28:15;;;;;;;;;;;;;;;;;;5020656;28;20318;-62
2022/01/03 01:30:40;;;;;;;;;;;;;;;;;;5031673;28;20057;-62
2022/01/03 01:33:08;;;;;;;;;;;;;;;;;;5030448;28;20025;-62
2022/01/03 01:35:39;;;;;;;;;;;;;;;;;;5030301;28;19924;-62
2022/01/03 01:38:05;;;;;;;;;;;;;;;;;;5031458;28;19952;-62
2022/01/03 01:40:30;;;;;;;;;;;;;;;;;;5032914;28;20442;-62
2022/01/03 01:42:56;;;;;;;;;;;;;;;;;;5030867;28;19909;-64
2022/01/03 01:45:24;;;;;;;;;;;;;;;;;;5030318;28;20336;-61
2022/01/03 01:47:53;;;;;;;;;;;;;;;;;;5029751;28;20099;-61
2022/01/03 01:50:19;;;;;;;;;;;;;;;;;;5032279;28;19921;-61
2022/01/03 01:52:46;;;;;;;;;;;;;;;;;;5031063;28;19916;-63
2022/01/03 01:55:13;;;;;;;;;;;;;;;;;;5031210;28;19912;-62
2022/01/03 01:57:55;;;;;;;;;;;;;;;;;;5031041;28;19964;-61
2022/01/03 02:00:21;;;;;;;;;;;;;;;;;;5030476;28;19913;-61
2022/01/03 02:03:06;;;;;;;;;;;;;;;;;;5030609;28;19913;-62
2022/01/03 02:05:47;;;;;;;;;;;;;;;;;;5030805;28;19913;-61
2022/01/03 02:08:26;;;;;;;;;;;;;;;;;;5031510;28;19909;-63
2022/01/03 02:10:54;;;;;;;;;;;;;;;;;;5030197;28;20330;-61
2022/01/03 02:13:22;;;;;;;;;;;;;;;;;;5028997;28;20415;-62
2022/01/03 02:15:57;;;;;;;;;;;;;;;;;;5030218;28;19929;-63
2022/01/03 02:18:23;;;;;;;;;;;;;;;;;;5030682;28;19909;-61
2022/01/03 02:20:48;;;;;;;;;;;;;;;;;;5036654;28;20103;-61
2022/01/03 02:23:13;;;;;;;;;;;;;;;;;;5032981;28;20482;-60
2022/01/03 02:25:38;;;;;;;;;;;;;;;;;;5030655;28;20339;-61
2022/01/03 02:28:04;;;;;;;;;;;;;;;;;;5030331;28;19921;-62
2022/01/03 02:30:30;;;;;;;;;;;;;;;;;;5029353;28;19915;-61
2022/01/03 02:32:56;;;;;;;;;;;;;;;;;;5029311;28;20272;-61
2022/01/03 02:35:21;;;;;;;;;;;;;;;;;;5030626;28;19915;-61
2022/01/03 02:37:47;;;;;;;;;;;;;;;;;;5031397;28;20367;-62
2022/01/03 02:40:13;;;;;;;;;;;;;;;;;;5030650;28;19928;-61
2022/01/03 02:42:39;;;;;;;;;;;;;;;;;;5029307;28;19913;-61
2022/01/03 02:45:08;;;;;;;;;;;;;;;;;;5029841;28;19912;-61
2022/01/03 02:47:33;;;;;;;;;;;;;;;;;;5029255;28;19932;-61
2022/01/03 02:49:59;;;;;;;;;;;;;;;;;;5030082;28;20306;-62
2022/01/03 02:52:24;;;;;;;;;;;;;;;;;;5029599;28;20342;-62
2022/01/03 02:54:49;;;;;;;;;;;;;;;;;;5030103;28;19957;-61
2022/01/03 02:57:15;;;;;;;;;;;;;;;;;;5027838;28;20290;-61
2022/01/03 02:59:41;;;;;;;;;;;;;;;;;;5031457;28;19912;-62
2022/01/03 03:02:06;;;;;;;;;;;;;;;;;;5029107;28;19912;-61
2022/01/03 03:04:31;;;;;;;;;;;;;;;;;;5029506;28;20043;-61
2022/01/03 03:06:57;;;;;;;;;;;;;;;;;;5029455;28;19913;-61
2022/01/03 03:09:22;;;;;;;;;;;;;;;;;;5031672;28;19921;-61
2022/01/03 03:11:47;;;;;;;;;;;;;;;;;;5029223;28;19920;-62
2022/01/03 03:14:13;;;;;;;;;;;;;;;;;;5029490;28;19921;-61
2022/01/03 03:16:38;;;;;;;;;;;;;;;;;;5030829;28;19994;-62
2022/01/03 03:19:03;;;;;;;;;;;;;;;;;;5029836;28;19983;-62
2022/01/03 03:21:30;;;;;;;;;;;;;;;;;;5037060;28;19920;-62
2022/01/03 03:23:55;;;;;;;;;;;;;;;;;;5028924;28;19938;-61
2022/01/03 03:26:20;;;;;;;;;;;;;;;;;;5028588;28;20380;-61
2022/01/03 03:28:46;;;;;;;;;;;;;;;;;;5028024;28;19916;-62
2022/01/03 03:31:11;;;;;;;;;;;;;;;;;;5029208;28;19917;-61
2022/01/03 03:33:38;;;;;;;;;;;;;;;;;;5028624;28;19990;-62
2022/01/03 03:36:03;;;;;;;;;;;;;;;;;;5030589;28;20319;-62
2022/01/03 03:38:29;;;;;;;;;;;;;;;;;;5029887;28;19912;-61
2022/01/03 03:40:57;;;;;;;;;;;;;;;;;;5028568;28;19916;-61
2022/01/03 03:43:23;;;;;;;;;;;;;;;;;;5028374;28;19920;-61
2022/01/03 03:45:49;;;;;;;;;;;;;;;;;;5030132;28;19917;-62
2022/01/03 03:48:14;;;;;;;;;;;;;;;;;;5031837;28;19949;-61
2022/01/03 03:50:40;;;;;;;;;;;;;;;;;;5029786;28;19909;-61
2022/01/03 03:53:06;;;;;;;;;;;;;;;;;;5027782;28;20064;-61
2022/01/03 03:55:31;;;;;;;;;;;;;;;;;;5030551;28;19913;-61
2022/01/03 03:57:57;;;;;;;;;;;;;;;;;;5029861;28;19928;-62
2022/01/03 04:00:22;;;;;;;;;;;;;;;;;;5028187;28;19948;-62
2022/01/03 04:02:48;;;;;;;;;;;;;;;;;;5031976;28;19928;-63
2022/01/03 04:05:13;;;;;;;;;;;;;;;;;;5029687;28;20371;-62
2022/01/03 04:07:39;;;;;;;;;;;;;;;;;;5028293;28;19913;-62
2022/01/03 04:10:05;;;;;;;;;;;;;;;;;;5028738;28;19960;-61
2022/01/03 04:12:31;;;;;;;;;;;;;;;;;;5027507;28;19924;-61
2022/01/03 04:14:56;;;;;;;;;;;;;;;;;;5030167;28;20098;-61
2022/01/03 04:17:21;;;;;;;;;;;;;;;;;;5028335;28;20003;-61
2022/01/03 04:19:46;;;;;;;;;;;;;;;;;;5028565;28;19919;-62
2022/01/03 04:22:12;;;;;;;;;;;;;;;;;;5028823;28;20125;-62
2022/01/03 04:24:37;;;;;;;;;;;;;;;;;;5028162;28;20000;-61
2022/01/03 04:27:02;;;;;;;;;;;;;;;;;;5028525;28;19948;-62
2022/01/03 04:29:29;;;;;;;;;;;;;;;;;;5030020;28;19913;-61
2022/01/03 04:31:54;;;;;;;;;;;;;;;;;;5028287;28;20335;-62
2022/01/03 04:34:19;;;;;;;;;;;;;;;;;;5028047;28;19921;-61
2022/01/03 04:36:45;;;;;;;;;;;;;;;;;;5027360;28;19909;-62
2022/01/03 04:39:10;;;;;;;;;;;;;;;;;;5028334;28;19920;-61
2022/01/03 04:41:35;;;;;;;;;;;;;;;;;;5029760;28;20050;-61
2022/01/03 04:44:05;;;;;;;;;;;;;;;;;;5027283;28;19925;-62
2022/01/03 04:46:30;;;;;;;;;;;;;;;;;;5028170;28;20007;-61
2022/01/03 04:48:55;;;;;;;;;;;;;;;;;;5030152;28;20395;-61
2022/01/03 04:51:21;;;;;;;;;;;;;;;;;;5028425;28;20054;-61
2022/01/03 04:53:46;;;;;;;;;;;;;;;;;;5027648;28;19917;-62
2022/01/03 04:56:12;;;;;;;;;;;;;;;;;;5027633;28;19913;-62
2022/01/03 04:58:38;;;;;;;;;;;;;;;;;;5027819;28;19913;-62
2022/01/03 05:01:04;;;;;;;;;;;;;;;;;;5029405;28;19920;-65
2022/01/03 05:03:29;;;;;;;;;;;;;;;;;;5028227;28;19974;-62
2022/01/03 05:05:54;;;;;;;;;;;;;;;;;;5028665;28;20368;-62
2022/01/03 05:08:20;;;;;;;;;;;;;;;;;;5059205;28;19971;-62
2022/01/03 05:10:45;;;;;;;;;;;;;;;;;;5030681;28;19959;-62
2022/01/03 05:13:10;;;;;;;;;;;;;;;;;;5032461;28;19959;-63
2022/01/03 05:15:36;;;;;;;;;;;;;;;;;;5031830;28;19921;-63
2022/01/03 05:18:01;;;;;;;;;;;;;;;;;;5031994;28;19909;-62
2022/01/03 05:20:26;;;;;;;;;;;;;;;;;;5034288;28;19951;-62
2022/01/03 05:22:51;;;;;;;;;;;;;;;;;;5030865;28;20398;-62
2022/01/03 05:25:17;;;;;;;;;;;;;;;;;;5031039;28;20450;-62
2022/01/03 05:27:42;;;;;;;;;;;;;;;;;;5032738;28;19913;-62
2022/01/03 05:30:08;;;;;;;;;;;;;;;;;;5031465;28;19928;-63
2022/01/03 05:32:33;;;;;;;;;;;;;;;;;;5030723;28;19928;-62
2022/01/03 05:34:58;;;;;;;;;;;;;;;;;;5031472;28;19920;-63
2022/01/03 05:37:24;;;;;;;;;;;;;;;;;;5033339;28;20008;-62
2022/01/03 05:39:49;;;;;;;;;;;;;;;;;;5035866;28;19952;-63
2022/01/03 05:42:14;;;;;;;;;;;;;;;;;;5032281;28;19916;-62
2022/01/03 05:44:40;;;;;;;;;;;;;;;;;;5030820;28;19920;-62
2022/01/03 05:47:06;;;;;;;;;;;;;;;;;;5030683;28;19919;-65
2022/01/03 05:49:31;;;;;;;;;;;;;;;;;;5031290;28;20270;-62
2022/01/03 05:51:56;;;;;;;;;;;;;;;;;;5062917;28;19999;-63
2022/01/03 05:54:22;;;;;;;;;;;;;;;;;;5032847;28;19913;-62
2022/01/03 05:56:47;;;;;;;;;;;;;;;;;;5031106;28;20004;-62
2022/01/03 05:59:12;;;;;;;;;;;;;;;;;;5032260;28;19917;-62
2022/01/03 06:01:38;;;;;;;;;;;;;;;;;;5032506;28;19963;-62
2022/01/03 06:07:05;;;;;;;;;;;;;;;;;;4994876;28;19913;-63
2022/01/03 06:09:31;;;;;;;;;;;;;;;;;;5031037;28;20387;-63
2022/01/03 06:11:56;;;;;;;;;;;;;;;;;;5032242;28;19913;-63
2022/01/03 06:14:25;;;;;;;;;;;;;;;;;;5030549;28;20320;-63
2022/01/03 06:16:51;;;;;;;;;;;;;;;;;;5030774;28;19920;-64
2022/01/03 06:19:16;;;;;;;;;;;;;;;;;;5030807;28;20384;-63
2022/01/03 06:21:42;;;;;;;;;;;;;;;;;;5031038;28;19931;-63
2022/01/03 06:24:09;;;;;;;;;;;;;;;;;;5030219;28;20298;-64
2022/01/03 06:26:34;;;;;;;;;;;;;;;;;;5030542;28;19913;-63
2022/01/03 06:28:59;;;;;;;;;;;;;;;;;;5030790;28;19917;-64
2022/01/03 06:31:25;;;;;;;;;;;;;;;;;;5030641;28;19917;-63
2022/01/03 06:33:50;;;;;;;;;;;;;;;;;;5031042;28;19909;-64
2022/01/03 06:36:16;;;;;;;;;;;;;;;;;;5030214;28;20367;-64
2022/01/03 06:38:41;;;;;;;;;;;;;;;;;;5031007;28;19909;-63
2022/01/03 06:41:07;;;;;;;;;;;;;;;;;;5030064;28;20284;-64
2022/01/03 06:43:32;;;;;;;;;;;;;;;;;;5029837;28;20458;-63
2022/01/03 06:45:57;;;;;;;;;;;;;;;;;;5030051;28;19913;-63
2022/01/03 06:48:23;;;;;;;;;;;;;;;;;;5030800;28;19912;-63
2022/01/03 06:50:49;;;;;;;;;;;;;;;;;;5032117;28;20374;-64
2022/01/03 06:53:14;;;;;;;;;;;;;;;;;;5030632;28;19913;-63
2022/01/03 06:55:40;;;;;;;;;;;;;;;;;;5032072;28;19941;-64
2022/01/03 06:58:05;;;;;;;;;;;;;;;;;;5031472;28;19913;-64
2022/01/03 07:00:30;;;;;;;;;;;;;;;;;;5030415;28;19913;-64
2022/01/03 07:02:56;;;;;;;;;;;;;;;;;;5030179;28;19943;-64
2022/01/03 07:05:21;;;;;;;;;;;;;;;;;;5030758;28;20319;-64
2022/01/03 07:07:46;;;;;;;;;;;;;;;;;;5030077;28;19964;-64
2022/01/03 07:10:12;;;;;;;;;;;;;;;;;;5030119;28;19916;-63
2022/01/03 07:12:38;;;;;;;;;;;;;;;;;;5029054;28;20024;-64
2022/01/03 07:20:31;;;;;;;;;;;;;;;;;;5030477;28;19919;-64
2022/01/03 07:22:56;;;;;;;;;;;;;;;;;;5029406;28;19913;-64
2022/01/03 07:25:22;;;;;;;;;;;;;;;;;;5029876;28;20008;-63
2022/01/03 07:27:47;;;;;;;;;;;;;;;;;;5029984;28;19913;-64
2022/01/03 07:30:12;;;;;;;;;;;;;;;;;;5030460;28;19913;-64
2022/01/03 07:32:41;;;;;;;;;;;;;;;;;;5029428;28;19920;-63
2022/01/03 07:35:07;;;;;;;;;;;;;;;;;;5028930;28;19913;-63
2022/01/03 07:37:33;;;;;;;;;;;;;;;;;;5030051;28;19955;-63
2022/01/03 07:39:58;;;;;;;;;;;;;;;;;;5030908;28;19988;-64
2022/01/03 07:42:23;;;;;;;;;;;;;;;;;;5028614;28;19996;-64
2022/01/03 07:44:49;;;;;;;;;;;;;;;;;;5030363;28;20124;-64
2022/01/03 07:47:14;;;;;;;;;;;;;;;;;;5030532;28;19984;-64
2022/01/03 07:49:39;;;;;;;;;;;;;;;;;;5031070;28;19913;-63
2022/01/03 07:52:05;;;;;;;;;;;;;;;;;;5030812;28;19932;-63
2022/01/03 07:54:30;;;;;;;;;;;;;;;;;;5029237;28;19912;-63
2022/01/03 07:56:55;;;;;;;;;;;;;;;;;;5029735;28;19917;-64
2022/01/03 07:59:21;;;;;;;;;;;;;;;;;;5029600;28;19920;-63
2022/01/03 08:01:46;;;;;;;;;;;;;;;;;;5029808;28;19935;-64
2022/01/03 08:04:12;;;;;;;;;;;;;;;;;;5030131;28;19917;-64
2022/01/03 08:06:37;;;;;;;;;;;;;;;;;;5029034;28;19913;-63
2022/01/03 08:09:02;;;;;;;;;;;;;;;;;;5030582;28;19909;-63
2022/01/03 08:11:28;;;;;;;;;;;;;;;;;;5029636;28;20382;-63
2022/01/03 08:13:53;;;;;;;;;;;;;;;;;;5030056;28;19913;-63
2022/01/03 08:16:19;;;;;;;;;;;;;;;;;;5030644;28;19921;-63
2022/01/03 08:18:44;;;;;;;;;;;;;;;;;;5029708;28;19919;-66
2022/01/03 08:21:10;;;;;;;;;;;;;;;;;;5033657;28;19924;-63
2022/01/03 08:23:36;;;;;;;;;;;;;;;;;;5029097;28;19951;-63
2022/01/03 08:26:01;;;;;;;;;;;;;;;;;;5028749;28;19956;-63
2022/01/03 08:28:27;;;;;;;;;;;;;;;;;;5029133;28;19947;-63
2022/01/03 08:30:52;;;;;;;;;;;;;;;;;;5030336;28;20309;-63
2022/01/03 08:33:17;;;;;;;;;;;;;;;;;;5033041;28;20359;-63
2022/01/03 08:35:42;;;;;;;;;;;;;;;;;;5029492;28;19971;-63
2022/01/03 08:38:08;;;;;;;;;;;;;;;;;;5029486;28;19924;-64
2022/01/03 08:40:33;;;;;;;;;;;;;;;;;;5032141;28;19920;-64
2022/01/03 08:42:59;;;;;;;;;;;;;;;;;;5027696;28;19921;-63
2022/01/03 08:45:24;;;;;;;;;;;;;;;;;;5032664;28;19992;-64
2022/01/03 08:47:50;;;;;;;;;;;;;;;;;;5035345;28;20283;-64
2022/01/03 08:50:18;;;;;;;;;;;;;;;;;;5034221;28;19979;-63
2022/01/03 08:52:44;;;;;;;;;;;;;;;;;;5034402;28;19924;-63
2022/01/03 08:55:09;;;;;;;;;;;;;;;;;;5032352;28;19913;-64
2022/01/03 08:57:35;;;;;;;;;;;;;;;;;;5033112;28;19913;-64
2022/01/03 09:00:00;;;;;;;;;;;;;;;;;;5033134;28;20181;-63
2022/01/03 09:02:25;;;;;;;;;;;;;;;;;;5033695;28;19920;-64
2022/01/03 09:04:51;;;;;;;;;;;;;;;;;;5032475;28;19913;-64
2022/01/03 09:07:16;;;;;;;;;;;;;;;;;;5032970;28;19913;-64
2022/01/03 09:09:41;;;;;;;;;;;;;;;;;;5034150;28;19960;-64
2022/01/03 09:12:07;;;;;;;;;;;;;;;;;;5032682;28;19917;-63
2022/01/03 09:14:33;;;;;;;;;;;;;;;;;;5032089;28;19913;-64
2022/01/03 09:16:58;;;;;;;;;;;;;;;;;;5033482;28;19913;-63
2022/01/03 09:19:23;;;;;;;;;;;;;;;;;;5032464;28;20016;-64
2022/01/03 09:21:49;;;;;;;;;;;;;;;;;;5033561;28;19920;-64
2022/01/03 09:29:26;;;;;;;;;;;;;;;;;;5032279;28;19932;-64
2022/01/03 09:31:52;;;;;;;;;;;;;;;;;;5032345;28;19916;-64
2022/01/03 09:34:17;;;;;;;;;;;;;;;;;;5031590;28;19924;-64
2022/01/03 09:36:42;;;;;;;;;;;;;;;;;;5033128;28;20363;-64
2022/01/03 09:39:07;;;;;;;;;;;;;;;;;;5032822;28;19970;-64
2022/01/03 09:41:33;;;;;;;;;;;;;;;;;;5031896;28;19919;-64
2022/01/03 09:44:03;;;;;;;;;;;;;;;;;;5031314;28;19992;-64
2022/01/03 09:46:36;;;;;;;;;;;;;;;;;;5035415;28;20047;-64
2022/01/03 09:49:02;;;;;;;;;;;;;;;;;;5034467;28;19928;-64
2022/01/03 09:51:31;;;;;;;;;;;;;;;;;;5033625;28;22540;-63
2022/01/03 09:53:59;;;;;;;;;;;;;;;;;;5032526;28;19913;-64
2022/01/03 09:56:24;;;;;;;;;;;;;;;;;;5030538;28;20007;-64
2022/01/03 09:58:50;;;;;;;;;;;;;;;;;;5030248;28;20000;-64
2022/01/03 10:01:15;;;;;;;;;;;;;;;;;;5033228;28;20268;-64
2022/01/03 10:03:47;;;;;;;;;;;;;;;;;;5033055;28;19912;-64
2022/01/03 10:06:12;;;;;;;;;;;;;;;;;;5033017;28;19913;-64
2022/01/03 10:08:38;;;;;;;;;;;;;;;;;;5031111;28;20346;-64
2022/01/03 10:11:03;;;;;;;;;;;;;;;;;;5032256;28;20035;-64
2022/01/03 10:13:28;;;;;;;;;;;;;;;;;;5030819;28;19917;-64
2022/01/03 10:15:53;;;;;;;;;;;;;;;;;;5033104;28;19921;-64
2022/01/03 10:18:19;;;;;;;;;;;;;;;;;;5030658;28;19967;-64
2022/01/03 10:20:45;;;;;;;;;;;;;;;;;;5031228;28;19920;-67
2022/01/03 10:23:13;;;;;;;;;;;;;;;;;;5030742;28;20204;-63
2022/01/03 10:25:38;;;;;;;;;;;;;;;;;;5030954;28;19992;-64
2022/01/03 10:28:07;;;;;;;;;;;;;;;;;;5031074;28;20441;-64
2022/01/03 10:30:35;;;;;;;;;;;;;;;;;;5030851;28;19924;-64
2022/01/03 10:33:02;;;;;;;;;;;;;;;;;;5030137;28;19939;-64
2022/01/03 10:35:33;;;;;;;;;;;;;;;;;;5030886;28;20419;-62
2022/01/03 10:37:59;;;;;;;;;;;;;;;;;;5029555;28;20168;-63
2022/01/03 10:40:27;;;;;;;;;;;;;;;;;;5031843;28;20010;-63
2022/01/03 10:42:53;;;;;;;;;;;;;;;;;;5030543;28;19954;-62
2022/01/03 10:45:29;;;;;;;;;;;;;;;;;;5031308;28;19975;-63
2022/01/03 10:47:54;;;;;;;;;;;;;;;;;;5031520;28;19917;-63
2022/01/03 10:50:20;;;;;;;;;;;;;;;;;;5030460;28;19913;-63
2022/01/03 10:52:46;;;;;;;;;;;;;;;;;;5032337;28;20229;-65
2022/01/03 10:55:17;;;;;;;;;;;;;;;;;;5030981;28;19978;-63
2022/01/03 10:57:49;;;;;;;;;;;;;;;;;;5030478;28;19909;-62
2022/01/03 11:00:26;;;;;;;;;;;;;;;;;;5029534;28;19913;-63
2022/01/03 11:03:56;;;;;;;;;;;;;;;;;;5029850;28;20292;-64
2022/01/03 11:06:02;;;;;;;;;;;;;;;;;;5017831;28;19960;-64
2022/01/03 11:11:13;;;;;;;;;;;;;;;;;;5028625;28;20031;-63
2022/01/03 11:13:42;;;;;;;;;;;;;;;;;;5030850;28;20016;-63
2022/01/03 11:16:08;;;;;;;;;;;;;;;;;;5029056;28;20011;-63
2022/01/03 11:18:34;;;;;;;;;;;;;;;;;;5031002;28;20035;-63
2022/01/03 11:20:59;;;;;;;;;;;;;;;;;;5029283;28;20381;-63
2022/01/03 11:23:24;;;;;;;;;;;;;;;;;;5031793;28;19909;-63
2022/01/03 11:25:52;;;;;;;;;;;;;;;;;;5028278;28;19912;-63
2022/01/03 11:28:17;;;;;;;;;;;;;;;;;;5030873;28;19920;-63
2022/01/03 11:30:43;;;;;;;;;;;;;;;;;;5030425;28;19920;-63
2022/01/03 11:33:09;;;;;;;;;;;;;;;;;;5029379;28;20327;-63
2022/01/03 11:35:35;;;;;;;;;;;;;;;;;;5029764;28;19988;-63
2022/01/03 11:38:01;;;;;;;;;;;;;;;;;;5029682;28;19917;-63
2022/01/03 11:40:26;;;;;;;;;;;;;;;;;;5030628;28;19913;-63
2022/01/03 11:42:52;;;;;;;;;;;;;;;;;;5029179;28;20348;-63
2022/01/03 11:45:18;;;;;;;;;;;;;;;;;;5029755;28;19928;-63
2022/01/03 11:47:43;;;;;;;;;;;;;;;;;;5029666;28;19999;-63
2022/01/03 11:50:09;;;;;;;;;;;;;;;;;;5030698;28;19925;-63
2022/01/03 11:52:41;;;;;;;;;;;;;;;;;;5029370;28;19964;-63
2022/01/03 11:55:07;;;;;;;;;;;;;;;;;;5030274;28;19913;-63
2022/01/03 11:57:59;;;;;;;;;;;;;;;;;;5029227;28;19992;-63
2022/01/03 12:05:56;;;;;;;;;;;;;;;;;;5025879;28;19978;-63
2022/01/03 12:08:24;;;;;;;;;;;;;;;;;;5029099;28;19924;-63
2022/01/03 12:10:50;;;;;;;;;;;;;;;;;;5029203;28;19908;-63
2022/01/03 12:13:15;;;;;;;;;;;;;;;;;;5029336;28;19920;-63
2022/01/03 12:15:42;;;;;;;;;;;;;;;;;;5029146;28;19924;-63
2022/01/03 12:18:34;;;;;;;;;;;;;;;;;;5030919;28;19917;-63
2022/01/03 12:20:59;;;;;;;;;;;;;;;;;;5030804;28;19917;-63
2022/01/03 12:23:41;;;;;;;;;;;;;;;;;;5036923;28;19936;-63
2022/01/03 12:26:23;;;;;;;;;;;;;;;;;;5036010;28;19936;-63
2022/01/03 12:29:07;;;;;;;;;;;;;;;;;;5036353;28;19964;-63
2022/01/03 12:32:05;;;;;;;;;;;;;;;;;;5051162;28;19917;-63
2022/01/03 12:34:31;;;;;;;;;;;;;;;;;;5013091;28;20327;-63
2022/01/03 12:37:28;;;;;;;;;;;;;;;;;;5037310;28;19912;-63
2022/01/03 12:40:14;;;;;;;;;;;;;;;;;;5000479;28;19913;-63
2022/01/03 12:42:49;;;;;;;;;;;;;;;;;;5033424;28;19940;-63
2022/01/03 12:45:14;;;;;;;;;;;;;;;;;;5035560;28;20268;-63
2022/01/03 12:47:39;;;;;;;;;;;;;;;;;;5035497;28;19920;-63
2022/01/03 12:50:28;;;;;;;;;;;;;;;;;;5033383;28;19996;-64
2022/01/03 12:52:54;;;;;;;;;;;;;;;;;;5036629;28;20016;-64
2022/01/03 12:55:38;;;;;;;;;;;;;;;;;;5035897;28;19913;-63
2022/01/03 12:58:03;;;;;;;;;;;;;;;;;;5036849;28;20000;-63
2022/01/03 13:00:38;;;;;;;;;;;;;;;;;;5035320;28;20008;-64
2022/01/03 13:03:22;;;;;;;;;;;;;;;;;;5031835;28;19909;-64
2022/01/03 13:06:14;;;;;;;;;;;;;;;;;;5033209;28;19943;-64
2022/01/03 13:08:40;;;;;;;;;;;;;;;;;;5034611;28;19913;-64
2022/01/03 13:11:06;;;;;;;;;;;;;;;;;;5035605;28;19923;-63
2022/01/03 13:13:32;;;;;;;;;;;;;;;;;;5034913;28;19913;-63
2022/01/03 13:15:57;;;;;;;;;;;;;;;;;;5035316;28;20027;-62
2022/01/03 13:18:22;;;;;;;;;;;;;;;;;;5035280;28;19913;-64
2022/01/03 13:20:57;;;;;;;;;;;;;;;;;;5037261;28;19913;-63
2022/01/03 13:23:24;;;;;;;;;;;;;;;;;;5035130;28;19932;-65
2022/01/03 13:25:50;;;;;;;;;;;;;;;;;;5034555;28;19924;-63
2022/01/03 13:28:15;;;;;;;;;;;;;;;;;;5035209;28;19909;-63
2022/01/03 13:30:58;;;;;;;;;;;;;;;;;;5034402;28;19921;-63
2022/01/03 13:33:24;;;;;;;;;;;;;;;;;;5033060;28;20271;-64
2022/01/03 13:36:02;;;;;;;;;;;;;;;;;;5032824;28;19921;-63
2022/01/03 13:38:28;;;;;;;;;;;;;;;;;;5033901;28;20351;-63
2022/01/03 13:40:54;;;;;;;;;;;;;;;;;;5032724;28;20058;-63
2022/01/03 13:43:25;;;;;;;;;;;;;;;;;;5032730;28;19916;-63
2022/01/03 13:51:06;;;;;;;;;;;;;;;;;;5033696;28;19966;-63
2022/01/03 13:53:32;;;;;;;;;;;;;;;;;;5031458;28;19912;-62
2022/01/03 13:55:57;;;;;;;;;;;;;;;;;;5030953;28;20146;-63
2022/01/03 13:58:25;;;;;;;;;;;;;;;;;;5031900;28;19913;-63
2022/01/03 14:00:55;;;;;;;;;;;;;;;;;;5031605;28;19912;-63
2022/01/03 14:03:21;;;;;;;;;;;;;;;;;;5031304;28;20023;-63
2022/01/03 14:05:48;;;;;;;;;;;;;;;;;;5031640;28;20451;-64
2022/01/03 14:08:17;;;;;;;;;;;;;;;;;;5031007;28;19909;-63
2022/01/03 14:10:44;;;;;;;;;;;;;;;;;;5032669;28;20367;-63
2022/01/03 14:13:11;;;;;;;;;;;;;;;;;;5030815;28;19917;-63
2022/01/03 14:15:36;;;;;;;;;;;;;;;;;;5031828;28;19913;-63
2022/01/03 14:18:02;;;;;;;;;;;;;;;;;;5032353;28;20364;-63
2022/01/03 14:20:27;;;;;;;;;;;;;;;;;;5031329;28;19917;-63
2022/01/03 14:22:53;;;;;;;;;;;;;;;;;;5029020;28;19909;-63
2022/01/03 14:25:18;;;;;;;;;;;;;;;;;;5032748;28;19940;-63
2022/01/03 14:27:47;;;;;;;;;;;;;;;;;;5031631;28;20260;-64
2022/01/03 14:30:13;;;;;;;;;;;;;;;;;;5031554;28;19913;-63
2022/01/03 14:32:39;;;;;;;;;;;;;;;;;;5030965;28;19920;-63
2022/01/03 14:35:04;;;;;;;;;;;;;;;;;;5030785;28;19913;-63
2022/01/03 14:37:32;;;;;;;;;;;;;;;;;;5032463;28;19912;-63
2022/01/03 14:39:59;;;;;;;;;;;;;;;;;;5031013;28;20398;-63
2022/01/03 14:42:25;;;;;;;;;;;;;;;;;;5028768;28;19924;-63
2022/01/03 14:44:51;;;;;;;;;;;;;;;;;;5030689;28;20302;-64
2022/01/03 14:47:21;;;;;;;;;;;;;;;;;;5031818;28;20221;-63
2022/01/03 14:49:56;;;;;;;;;;;;;;;;;;5031052;28;20295;-64
2022/01/03 14:52:39;;;;;;;;;;;;;;;;;;5031460;28;20433;-63
2022/01/03 14:55:05;;;;;;;;;;;;;;;;;;5030499;28;19913;-63
2022/01/03 14:57:31;;;;;;;;;;;;;;;;;;5033908;28;20375;-64
2022/01/03 15:00:00;;;;;;;;;;;;;;;;;;5033341;28;19928;-64
2022/01/03 15:02:26;;;;;;;;;;;;;;;;;;5029737;28;19920;-63
2022/01/03 15:04:53;;;;;;;;;;;;;;;;;;5033836;28;20390;-63
2022/01/03 15:07:20;;;;;;;;;;;;;;;;;;5031173;28;19921;-63
2022/01/03 15:09:46;;;;;;;;;;;;;;;;;;5030929;28;20012;-65
2022/01/03 15:12:12;;;;;;;;;;;;;;;;;;5031003;28;19912;-63
2022/01/03 15:14:37;;;;;;;;;;;;;;;;;;5029576;28;20449;-63
2022/01/03 15:17:02;;;;;;;;;;;;;;;;;;5030237;28;19974;-63
2022/01/03 15:19:28;;;;;;;;;;;;;;;;;;5030901;28;20280;-63
2022/01/03 15:21:53;;;;;;;;;;;;;;;;;;5030041;28;19920;-63
2022/01/03 15:24:18;;;;;;;;;;;;;;;;;;5033006;28;19916;-63
2022/01/03 15:26:44;;;;;;;;;;;;;;;;;;5029906;28;20415;-63
2022/01/03 15:29:10;;;;;;;;;;;;;;;;;;5029950;28;19916;-62
2022/01/03 15:31:35;;;;;;;;;;;;;;;;;;5030440;28;20007;-62
2022/01/03 15:34:00;;;;;;;;;;;;;;;;;;5029844;28;19956;-63
2022/01/03 15:36:26;;;;;;;;;;;;;;;;;;5030173;28;19919;-63
2022/01/03 15:38:52;;;;;;;;;;;;;;;;;;5029771;28;19920;-63
2022/01/03 15:41:17;;;;;;;;;;;;;;;;;;5029603;28;19929;-63
2022/01/03 15:43:43;;;;;;;;;;;;;;;;;;5029424;28;19920;-63
2022/01/03 15:46:08;;;;;;;;;;;;;;;;;;5029449;28;19924;-63
2022/01/03 15:48:34;;;;;;;;;;;;;;;;;;5031353;28;19909;-64
2022/01/03 15:50:59;;;;;;;;;;;;;;;;;;5029289;28;19917;-63
2022/01/03 15:53:25;;;;;;;;;;;;;;;;;;5029568;28;19917;-63
2022/01/03 15:55:51;;;;;;;;;;;;;;;;;;5030379;28;19920;-63
2022/01/03 15:58:16;;;;;;;;;;;;;;;;;;5028714;28;19913;-63
2022/01/03 16:00:42;;;;;;;;;;;;;;;;;;5030850;28;19955;-63
2022/01/03 16:03:07;;;;;;;;;;;;;;;;;;5029040;28;20139;-63
2022/01/03 16:05:33;;;;;;;;;;;;;;;;;;5029854;28;19913;-63
2022/01/03 16:08:00;;;;;;;;;;;;;;;;;;5029337;28;19912;-63
2022/01/03 16:10:34;;;;;;;;;;;;;;;;;;5031265;28;19990;-63
2022/01/03 16:12:59;;;;;;;;;;;;;;;;;;5028422;28;20337;-63
2022/01/03 16:15:25;;;;;;;;;;;;;;;;;;5029386;28;19939;-63
2022/01/03 16:17:50;;;;;;;;;;;;;;;;;;5030121;28;20019;-63
2022/01/03 16:20:16;;;;;;;;;;;;;;;;;;5030702;28;19921;-63
2022/01/03 16:22:42;;;;;;;;;;;;;;;;;;5028902;28;19916;-63
2022/01/03 16:25:10;;;;;;;;;;;;;;;;;;5030439;28;20384;-63
2022/01/03 16:27:35;;;;;;;;;;;;;;;;;;5029468;28;19947;-63
2022/01/03 16:30:01;;;;;;;;;;;;;;;;;;5030760;28;19913;-63
2022/01/03 16:32:26;;;;;;;;;;;;;;;;;;5030007;28;20384;-63
2022/01/03 16:34:51;;;;;;;;;;;;;;;;;;5030209;28;19932;-63
2022/01/03 16:37:18;;;;;;;;;;;;;;;;;;5029404;28;19917;-63
2022/01/03 16:39:43;;;;;;;;;;;;;;;;;;5030841;28;19913;-63
2022/01/03 16:42:08;;;;;;;;;;;;;;;;;;5030067;28;19924;-63
2022/01/03 16:44:36;;;;;;;;;;;;;;;;;;5028957;28;20040;-63
2022/01/03 16:47:02;;;;;;;;;;;;;;;;;;5030982;28;20119;-63
2022/01/03 16:49:28;;;;;;;;;;;;;;;;;;5029627;28;19928;-63
2022/01/03 16:51:53;;;;;;;;;;;;;;;;;;5029040;28;19917;-64
2022/01/03 16:54:18;;;;;;;;;;;;;;;;;;5029468;28;20441;-63
2022/01/03 16:56:44;;;;;;;;;;;;;;;;;;5028150;28;19940;-63
2022/01/03 16:59:10;;;;;;;;;;;;;;;;;;5031182;28;19940;-63
2022/01/03 17:01:35;;;;;;;;;;;;;;;;;;5029257;28;19916;-63
2022/01/03 17:04:02;;;;;;;;;;;;;;;;;;5028481;28;19913;-63
2022/01/03 17:06:29;;;;;;;;;;;;;;;;;;5031281;28;20382;-62
2022/01/03 17:08:54;;;;;;;;;;;;;;;;;;5032624;28;19920;-64
2022/01/03 17:11:19;;;;;;;;;;;;;;;;;;5033712;28;19913;-63
2022/01/03 17:13:45;;;;;;;;;;;;;;;;;;5032332;28;19917;-64
2022/01/03 17:16:10;;;;;;;;;;;;;;;;;;5033170;28;20355;-64